Time;durP1;ratioP1;P1;durP2;ratioP2;P2;SDS_P1;SDS_P2;PMS_P1;PMS_P2;Temp;Humidity;BMP_temperature;BMP_pressure;BME280_temperature;BME280_humidity;BME280_pressure;Samples;Min_cycle;Max_cycle;Signal;HPM_P1;HPM_P2
2022/10/30 07:43:14;;;;;;;;;;;;;;;16.11;77.33;97438.31;4228955;27;10508;-72
2022/10/30 07:45:17;;;;;;;;;;;;;;;16.40;76.52;97434.25;4214866;28;5694;-71
2022/10/30 07:47:24;;;;;;;;;;;;;;;16.65;75.91;97434.34;4214444;28;5685;-70
2022/10/30 07:49:26;;;;;;;;;;;;;;;16.83;75.40;97436.28;4214783;28;5694;-71
2022/10/30 07:51:29;;;;;;;;;;;;;;;16.98;75.10;97438.63;4214381;28;5686;-71
2022/10/30 07:53:32;;;;;;;;;;;;;;;17.06;74.85;97444.50;4212923;28;5706;-71
2022/10/30 07:55:35;;;;;;;;;;;;;;;17.16;74.47;97439.50;4210556;28;5809;-71
2022/10/30 07:57:40;;;;;;;;;;;;;;;17.24;74.45;97446.44;4207455;28;5788;-71
2022/10/30 07:59:44;;;;;;;;;;;;;;;17.30;74.10;97448.19;4210790;28;5976;-71
2022/10/30 08:01:48;;;;;;;;;;;;;;;17.35;73.99;97442.22;4204237;28;5806;-71
2022/10/30 08:03:54;;;;;;;;;;;;;;;17.38;73.68;97450.59;4204399;28;5718;-67
2022/10/30 08:05:57;;;;;;;;;;;;;;;17.43;73.55;97450.75;4213551;28;5882;-72
2022/10/30 08:08:00;;;;;;;;;;;;;;;17.49;73.37;97442.91;4207224;28;7750;-72
2022/10/30 08:10:07;;;;;;;;;;;;;;;17.53;73.17;97442.22;4203757;28;6044;-71
2022/10/30 08:12:10;;;;;;;;;;;;;;;17.57;73.25;97447.97;4196718;28;5755;-71
2022/10/30 08:14:13;;;;;;;;;;;;;;;17.60;73.10;97444.84;4208907;28;5702;-72
2022/10/30 08:16:18;;;;;;;;;;;;;;;17.61;72.89;97449.16;4210325;28;5753;-73
2022/10/30 08:18:20;;;;;;;;;;;;;;;17.64;73.00;97454.03;4204474;28;5786;-73
2022/10/30 08:20:24;;;;;;;;;;;;;;;17.65;72.80;97450.31;4205326;28;6378;-72
2022/10/30 08:22:27;;;;;;;;;;;;;;;17.67;72.96;97448.28;4208753;28;5711;-72
2022/10/30 08:24:29;;;;;;;;;;;;;;;17.68;72.60;97452.59;4208216;28;5843;-72
2022/10/30 08:26:32;;;;;;;;;;;;;;;17.68;72.53;97444.56;4201308;28;5867;-73
2022/10/30 08:28:35;;;;;;;;;;;;;;;17.68;72.45;97447.22;4202326;28;7722;-72
2022/10/30 08:30:38;;;;;;;;;;;;;;;17.71;72.53;97446.81;4203601;28;5698;-74
2022/10/30 08:32:42;;;;;;;;;;;;;;;17.71;72.22;97442.28;4206577;28;6705;-72
2022/10/30 08:34:45;;;;;;;;;;;;;;;17.72;72.45;97438.56;4204379;28;5722;-72
2022/10/30 08:36:49;;;;;;;;;;;;;;;17.74;72.37;97441.00;4208368;28;5682;-72
2022/10/30 08:38:52;;;;;;;;;;;;;;;17.76;72.27;97436.25;4202252;28;5702;-72
2022/10/30 08:40:55;;;;;;;;;;;;;;;17.78;72.29;97441.38;4210634;28;5769;-72
2022/10/30 08:42:58;;;;;;;;;;;;;;;17.77;72.19;97440.56;4198804;28;5682;-72
2022/10/30 08:45:01;;;;;;;;;;;;;;;17.79;71.97;97443.84;4193363;28;5924;-72
2022/10/30 08:47:04;;;;;;;;;;;;;;;17.80;71.93;97445.47;4197978;28;5697;-72
2022/10/30 08:49:08;;;;;;;;;;;;;;;17.80;71.64;97433.97;4194003;28;5828;-70
2022/10/30 08:51:11;;;;;;;;;;;;;;;17.80;71.61;97434.78;4193653;28;5921;-72
2022/10/30 08:53:15;;;;;;;;;;;;;;;17.81;71.69;97436.41;4196492;28;5693;-72
2022/10/30 08:55:18;;;;;;;;;;;;;;;17.85;71.40;97447.47;4192343;28;5718;-72
2022/10/30 08:57:21;;;;;;;;;;;;;;;17.86;71.21;97447.25;4193186;28;5694;-67
2022/10/30 08:59:24;;;;;;;;;;;;;;;17.88;71.16;97445.16;4194353;28;5682;-66
2022/10/30 09:01:27;;;;;;;;;;;;;;;17.90;71.09;97443.09;4193857;28;5880;-66
2022/10/30 09:03:30;;;;;;;;;;;;;;;17.93;71.02;97445.31;4193953;28;5921;-66
2022/10/30 09:05:36;;;;;;;;;;;;;;;17.96;70.82;97444.06;4191084;28;7449;-67
2022/10/30 09:07:39;;;;;;;;;;;;;;;17.96;70.98;97439.53;4190799;28;5842;-66
2022/10/30 09:09:42;;;;;;;;;;;;;;;17.96;70.72;97442.19;4194664;28;5844;-66
2022/10/30 09:11:44;;;;;;;;;;;;;;;17.96;70.62;97434.16;4199000;28;6051;-67
2022/10/30 09:13:47;;;;;;;;;;;;;;;17.98;70.61;97441.97;4199711;28;5802;-67
2022/10/30 09:15:50;;;;;;;;;;;;;;;17.96;70.40;97439.53;4196353;28;5890;-67
2022/10/30 09:17:57;;;;;;;;;;;;;;;17.97;70.12;97429.63;4196024;28;5714;-68
2022/10/30 09:20:01;;;;;;;;;;;;;;;18.01;70.13;97436.19;4200272;28;5829;-67
2022/10/30 09:22:06;;;;;;;;;;;;;;;18.04;70.25;97433.06;4199380;28;5806;-67
2022/10/30 09:24:09;;;;;;;;;;;;;;;18.07;69.85;97434.47;4201662;28;6399;-69
2022/10/30 09:26:11;;;;;;;;;;;;;;;18.09;69.95;97440.41;4193750;28;5690;-66
2022/10/30 09:28:21;;;;;;;;;;;;;;;18.11;69.83;97436.44;4191848;28;5715;-70
2022/10/30 09:30:25;;;;;;;;;;;;;;;18.14;69.77;97440.56;4192371;28;5704;-71
2022/10/30 09:32:27;;;;;;;;;;;;;;;18.13;69.69;97439.75;4188196;28;5782;-70
2022/10/30 09:34:31;;;;;;;;;;;;;;;18.13;69.63;97438.94;4191398;28;5817;-71
2022/10/30 09:36:34;;;;;;;;;;;;;;;18.15;69.53;97432.28;4200985;28;5687;-71
2022/10/30 09:38:39;;;;;;;;;;;;;;;18.16;69.62;97438.47;4201537;28;5419;-71
2022/10/30 09:40:54;;;;;;;;;;;;;;;18.14;69.72;97435.19;4202222;28;7683;-71
2022/10/30 09:43:03;;;;;;;;;;;;;;;18.14;69.32;97435.19;4202086;28;5785;-71
2022/10/30 09:45:24;;;;;;;;;;;;;;;18.15;69.50;97436.84;4201976;28;5813;-71
2022/10/30 09:47:44;;;;;;;;;;;;;;;18.17;69.59;97438.22;4202065;28;5698;-70
2022/10/30 09:50:06;;;;;;;;;;;;;;;18.19;69.30;97435.31;4202255;28;5693;-71
2022/10/30 09:52:27;;;;;;;;;;;;;;;18.21;69.76;97435.91;4202123;28;5698;-71
2022/10/30 09:54:44;;;;;;;;;;;;;;;18.24;69.45;97440.84;4201287;28;5762;-71
2022/10/30 09:56:53;;;;;;;;;;;;;;;18.26;69.34;97438.75;4202034;28;5714;-70
2022/10/30 09:59:11;;;;;;;;;;;;;;;18.25;69.38;97437.13;4201996;28;5706;-71
2022/10/30 10:01:20;;;;;;;;;;;;;;;18.24;69.10;97441.66;4201799;28;5796;-71
2022/10/30 10:03:37;;;;;;;;;;;;;;;18.26;69.24;97449.44;4201512;28;5693;-71
2022/10/30 10:05:44;;;;;;;;;;;;;;;18.27;69.15;97441.19;4201687;28;5694;-71
2022/10/30 10:07:50;;;;;;;;;;;;;;;18.28;68.97;97444.69;4201924;28;5702;-71
2022/10/30 10:09:59;;;;;;;;;;;;;;;18.29;69.17;97447.13;4201775;28;5686;-68
2022/10/30 10:12:06;;;;;;;;;;;;;;;18.28;69.16;97448.19;4201787;28;5810;-69
2022/10/30 10:14:15;;;;;;;;;;;;;;;18.30;69.08;97442.59;4201725;28;5697;-69
2022/10/30 10:16:19;;;;;;;;;;;;;;;18.31;69.06;97449.56;4201716;28;6368;-69
2022/10/30 10:18:28;;;;;;;;;;;;;;;18.31;68.84;97446.91;4201490;28;5702;-69
2022/10/30 10:20:37;;;;;;;;;;;;;;;18.28;69.04;97445.50;4201506;28;5690;-69
2022/10/30 10:22:45;;;;;;;;;;;;;;;18.28;68.89;97442.81;4201571;28;5690;-69
2022/10/30 10:24:49;;;;;;;;;;;;;;;18.31;68.76;97441.56;4201645;28;5827;-69
2022/10/30 10:27:00;;;;;;;;;;;;;;;18.31;69.03;97433.53;4201540;28;6047;-69
2022/10/30 10:29:30;;;;;;;;;;;;;;;18.32;68.75;97438.66;4201551;28;5796;-69
2022/10/30 10:31:42;;;;;;;;;;;;;;;18.35;68.89;97434.72;4199499;28;5686;-69
2022/10/30 10:34:00;;;;;;;;;;;;;;;18.37;68.79;97429.13;4201098;28;5773;-69
2022/10/30 10:36:16;;;;;;;;;;;;;;;18.38;68.66;97436.94;4201559;28;5721;-70
2022/10/30 10:38:33;;;;;;;;;;;;;;;18.40;68.63;97436.69;4201400;28;5685;-69
2022/10/30 10:40:52;;;;;;;;;;;;;;;18.40;68.75;97445.56;4201247;28;5699;-69
2022/10/30 10:43:15;;;;;;;;;;;;;;;18.41;68.79;97443.69;4200973;28;5784;-69
2022/10/30 10:45:27;;;;;;;;;;;;;;;18.41;68.70;97444.50;4201256;28;5698;-69
2022/10/30 10:47:50;;;;;;;;;;;;;;;18.39;68.60;97438.56;4201197;28;5694;-69
2022/10/30 10:50:11;;;;;;;;;;;;;;;18.40;68.59;97444.72;4201052;28;5698;-69
2022/10/30 10:52:19;;;;;;;;;;;;;;;18.40;68.58;97436.69;4200677;28;5792;-69
2022/10/30 10:54:26;;;;;;;;;;;;;;;18.38;68.62;97436.94;4200838;28;5907;-69
2022/10/30 10:56:34;;;;;;;;;;;;;;;18.36;68.75;97433.66;4201165;28;5694;-69
2022/10/30 10:58:49;;;;;;;;;;;;;;;18.37;68.60;97429.13;4201158;28;5726;-69
2022/10/30 11:00:53;;;;;;;;;;;;;;;18.36;68.71;97432.84;4201193;28;5702;-71
2022/10/30 11:03:02;;;;;;;;;;;;;;;18.33;68.72;97418.03;4200786;28;5903;-69
2022/10/30 11:05:13;;;;;;;;;;;;;;;18.33;68.61;97434.09;4201286;28;5808;-69
2022/10/30 11:07:21;;;;;;;;;;;;;;;18.34;68.47;97428.53;4200812;28;5836;-69
2022/10/30 11:09:27;;;;;;;;;;;;;;;18.33;68.81;97421.53;4200749;28;5691;-69
2022/10/30 11:11:30;;;;;;;;;;;;;;;18.33;68.68;97418.84;4200874;28;6391;-69
2022/10/30 11:13:35;;;;;;;;;;;;;;;18.34;68.86;97409.78;4200871;28;5787;-70
2022/10/30 11:15:51;;;;;;;;;;;;;;;18.37;68.78;97411.22;4200851;28;5694;-70
2022/10/30 11:17:59;;;;;;;;;;;;;;;18.42;68.77;97416.69;4200647;28;5840;-70
2022/10/30 11:20:15;;;;;;;;;;;;;;;18.43;68.77;97414.81;4200899;28;5749;-70
2022/10/30 11:22:25;;;;;;;;;;;;;;;18.40;68.80;97408.06;4200809;28;5698;-70
2022/10/30 11:24:31;;;;;;;;;;;;;;;18.41;68.75;97412.38;4200896;28;5686;-70
2022/10/30 11:26:34;;;;;;;;;;;;;;;18.41;68.90;97411.56;4200918;28;5821;-70
2022/10/30 11:28:45;;;;;;;;;;;;;;;18.40;68.64;97407.25;4200818;28;5698;-70
2022/10/30 11:30:49;;;;;;;;;;;;;;;18.39;68.61;97395.72;4200765;28;5822;-69
2022/10/30 11:32:52;;;;;;;;;;;;;;;18.41;68.71;97398.19;4200456;28;5729;-69
2022/10/30 11:35:03;;;;;;;;;;;;;;;18.41;68.75;97404.34;4200566;28;5698;-69
2022/10/30 11:37:33;;;;;;;;;;;;;;;18.41;68.72;97403.53;4200541;28;5694;-69
2022/10/30 11:39:36;;;;;;;;;;;;;;;18.41;68.74;97404.34;4200792;28;5789;-70
2022/10/30 11:41:39;;;;;;;;;;;;;;;18.42;68.89;97397.94;4200341;28;5679;-69
2022/10/30 11:43:44;;;;;;;;;;;;;;;18.43;68.81;97404.13;4200608;28;5725;-70
2022/10/30 11:45:47;;;;;;;;;;;;;;;18.41;68.76;97401.66;4200630;28;5698;-70
2022/10/30 11:47:54;;;;;;;;;;;;;;;18.40;68.67;97397.38;4200230;28;5698;-69
2022/10/30 11:50:06;;;;;;;;;;;;;;;18.40;68.80;97402.72;4200614;28;5690;-69
2022/10/30 11:52:10;;;;;;;;;;;;;;;18.37;68.69;97392.47;4200624;28;5697;-69
2022/10/30 11:54:19;;;;;;;;;;;;;;;18.39;68.68;97394.91;4200490;28;5761;-70
2022/10/30 11:56:23;;;;;;;;;;;;;;;18.37;68.86;97391.66;4200530;28;5722;-70
2022/10/30 11:58:30;;;;;;;;;;;;;;;18.38;69.16;97387.94;4200406;28;6475;-69
2022/10/30 12:00:36;;;;;;;;;;;;;;;18.40;69.06;97381.31;4200455;28;5833;-70
2022/10/30 12:02:42;;;;;;;;;;;;;;;18.40;68.80;97377.81;4200336;28;5810;-70
2022/10/30 12:04:47;;;;;;;;;;;;;;;18.36;68.99;97372.09;4200650;28;5581;-70
2022/10/30 12:06:54;;;;;;;;;;;;;;;18.33;69.11;97369.88;4200529;28;7703;-70
2022/10/30 12:09:02;;;;;;;;;;;;;;;18.34;68.88;97371.50;4200273;28;7170;-71
2022/10/30 12:11:06;;;;;;;;;;;;;;;18.39;69.01;97371.66;4200356;28;5718;-71
2022/10/30 12:13:14;;;;;;;;;;;;;;;18.41;68.83;97366.88;4200365;28;5682;-70
2022/10/30 12:15:24;;;;;;;;;;;;;;;18.45;68.92;97362.69;4200569;28;5768;-70
2022/10/30 12:17:27;;;;;;;;;;;;;;;18.46;68.83;97368.84;4200450;28;5810;-71
2022/10/30 12:19:31;;;;;;;;;;;;;;;18.46;68.86;97353.63;4202894;28;5753;-70
2022/10/30 12:21:39;;;;;;;;;;;;;;;18.53;68.91;97361.53;4203580;28;5757;-71
2022/10/30 12:23:51;;;;;;;;;;;;;;;18.56;68.98;97361.91;4203462;28;5702;-67
2022/10/30 12:25:57;;;;;;;;;;;;;;;18.57;68.79;97355.53;4203483;28;5702;-69
2022/10/30 12:28:04;;;;;;;;;;;;;;;18.59;69.00;97356.09;4203475;28;5698;-70
2022/10/30 12:30:16;;;;;;;;;;;;;;;18.56;68.88;97348.50;4203449;28;5711;-70
2022/10/30 12:32:28;;;;;;;;;;;;;;;18.59;68.89;97353.41;4203299;28;5714;-69
2022/10/30 12:34:38;;;;;;;;;;;;;;;18.60;69.19;97352.38;4203197;28;5799;-69
2022/10/30 12:36:48;;;;;;;;;;;;;;;18.61;69.09;97348.66;4203391;28;5908;-70
2022/10/30 12:38:55;;;;;;;;;;;;;;;18.65;68.91;97351.69;4203297;28;5690;-71
2022/10/30 12:41:05;;;;;;;;;;;;;;;18.66;68.92;97342.63;4203219;28;5805;-69
2022/10/30 12:43:17;;;;;;;;;;;;;;;18.68;68.77;97340.53;4202944;28;5694;-70
2022/10/30 12:45:24;;;;;;;;;;;;;;;18.69;68.79;97349.38;4203080;28;5698;-70
2022/10/30 12:47:34;;;;;;;;;;;;;;;18.71;69.08;97345.44;4203153;28;5802;-70
2022/10/30 12:49:41;;;;;;;;;;;;;;;18.73;68.69;97337.97;4202948;28;5690;-71
2022/10/30 12:51:52;;;;;;;;;;;;;;;18.74;68.97;97336.13;4202881;28;5703;-69
2022/10/30 12:54:00;;;;;;;;;;;;;;;18.73;68.83;97337.16;4202922;28;5701;-69
2022/10/30 12:56:10;;;;;;;;;;;;;;;18.73;69.03;97329.13;4201923;28;5675;-69
2022/10/30 12:58:20;;;;;;;;;;;;;;;18.73;69.05;97331.81;4202955;28;5789;-69
2022/10/30 13:00:25;;;;;;;;;;;;;;;18.70;68.85;97327.75;4202901;28;5794;-70
2022/10/30 13:02:39;;;;;;;;;;;;;;;18.72;68.81;97324.81;4202712;28;5694;-70
2022/10/30 13:04:48;;;;;;;;;;;;;;;18.73;68.93;97321.09;4202658;28;5797;-70
2022/10/30 13:07:01;;;;;;;;;;;;;;;18.75;69.01;97319.00;4203001;28;5682;-70
2022/10/30 13:09:15;;;;;;;;;;;;;;;18.76;68.83;97317.94;4202810;28;5774;-70
2022/10/30 13:11:28;;;;;;;;;;;;;;;18.78;68.74;97318.53;4202732;28;5690;-70
2022/10/30 13:13:36;;;;;;;;;;;;;;;18.80;68.99;97316.44;4202685;28;5701;-70
2022/10/30 13:15:45;;;;;;;;;;;;;;;18.81;68.72;97318.91;4202689;28;5678;-69
2022/10/30 13:17:49;;;;;;;;;;;;;;;18.84;68.56;97314.94;4202487;28;5697;-70
2022/10/30 13:19:51;;;;;;;;;;;;;;;18.84;68.88;97313.06;4202573;28;5815;-69
2022/10/30 13:22:05;;;;;;;;;;;;;;;18.85;68.90;97308.53;4202497;28;6379;-69
2022/10/30 13:24:12;;;;;;;;;;;;;;;18.85;68.56;97309.34;4202578;28;5685;-70
2022/10/30 13:26:24;;;;;;;;;;;;;;;18.85;68.18;97306.66;4202660;28;5801;-70
2022/10/30 13:28:33;;;;;;;;;;;;;;;18.86;68.68;97310.16;4202510;28;5694;-69
2022/10/30 13:30:41;;;;;;;;;;;;;;;18.85;68.57;97308.53;4202300;28;5686;-70
2022/10/30 13:33:03;;;;;;;;;;;;;;;18.86;68.49;97304.78;4201962;28;5686;-69
2022/10/30 13:35:24;;;;;;;;;;;;;;;18.88;68.36;97311.53;4202302;28;5697;-69
2022/10/30 13:37:34;;;;;;;;;;;;;;;18.87;68.43;97306.41;4196784;28;5753;-69
2022/10/30 13:39:41;;;;;;;;;;;;;;;18.88;68.36;97302.69;4202364;28;5836;-69
2022/10/30 13:41:57;;;;;;;;;;;;;;;18.88;68.27;97306.19;4201965;28;5760;-70
2022/10/30 13:44:07;;;;;;;;;;;;;;;18.88;68.31;97300.00;4202332;28;5718;-69
2022/10/30 13:46:29;;;;;;;;;;;;;;;18.89;68.36;97304.31;4202140;28;5693;-69
2022/10/30 13:48:49;;;;;;;;;;;;;;;18.90;68.27;97300.59;4202005;28;5710;-69
2022/10/30 13:51:33;;;;;;;;;;;;;;;18.89;67.99;97302.44;4202345;28;5678;-69
2022/10/30 13:53:41;;;;;;;;;;;;;;;18.90;68.06;97295.22;4201955;28;5701;-69
2022/10/30 13:55:46;;;;;;;;;;;;;;;18.90;68.04;97297.91;4202136;28;5364;-69
2022/10/30 13:57:56;;;;;;;;;;;;;;;18.89;68.12;97298.97;4201875;28;7682;-69
2022/10/30 14:00:05;;;;;;;;;;;;;;;18.89;68.02;97298.97;4201900;28;5702;-69
2022/10/30 14:02:27;;;;;;;;;;;;;;;18.88;68.02;97291.97;4201776;28;5814;-70
2022/10/30 14:04:37;;;;;;;;;;;;;;;18.89;67.79;97288.25;4201698;28;5690;-69
2022/10/30 14:06:51;;;;;;;;;;;;;;;18.89;67.69;97290.94;4201805;28;5781;-70
2022/10/30 14:09:04;;;;;;;;;;;;;;;18.93;67.72;97289.44;4201714;28;5693;-70
2022/10/30 14:11:11;;;;;;;;;;;;;;;18.94;67.48;97285.69;4201624;28;5839;-69
2022/10/30 14:13:27;;;;;;;;;;;;;;;18.94;67.65;97285.69;4201647;28;5678;-70
2022/10/30 14:15:33;;;;;;;;;;;;;;;18.95;67.45;97281.97;4201688;28;5686;-70
2022/10/30 14:17:36;;;;;;;;;;;;;;;18.96;67.05;97291.63;4201556;28;5773;-69
2022/10/30 14:20:16;;;;;;;;;;;;;;;18.97;67.41;97289.75;4201570;28;5686;-69
2022/10/30 14:22:24;;;;;;;;;;;;;;;18.97;67.31;97282.53;4201620;28;5686;-69
2022/10/30 14:24:30;;;;;;;;;;;;;;;18.96;67.30;97278.22;4201513;28;5690;-69
2022/10/30 14:26:33;;;;;;;;;;;;;;;18.97;67.00;97284.41;4201537;28;5726;-70
2022/10/30 14:28:36;;;;;;;;;;;;;;;18.97;66.91;97277.19;4201391;28;5769;-70
2022/10/30 14:30:44;;;;;;;;;;;;;;;18.97;67.22;97279.84;4201611;28;5753;-70
2022/10/30 14:32:51;;;;;;;;;;;;;;;18.98;66.87;97278.81;4199986;28;6524;-69
2022/10/30 14:34:58;;;;;;;;;;;;;;;19.00;66.87;97273.22;4201498;28;5693;-70
2022/10/30 14:37:01;;;;;;;;;;;;;;;19.00;67.04;97267.84;4201320;28;5702;-69
2022/10/30 14:39:27;;;;;;;;;;;;;;;18.99;66.82;97275.06;4201131;28;5725;-70
2022/10/30 14:41:54;;;;;;;;;;;;;;;18.99;66.82;97275.06;4200506;28;5090;-70
2022/10/30 14:44:15;;;;;;;;;;;;;;;18.99;66.66;97275.06;4201506;28;5686;-70
2022/10/30 14:46:27;;;;;;;;;;;;;;;18.98;66.82;97268.09;4201430;28;5706;-70
2022/10/30 14:48:46;;;;;;;;;;;;;;;18.99;66.89;97271.59;4200956;28;5698;-70
2022/10/30 14:51:08;;;;;;;;;;;;;;;18.98;67.11;97273.44;4201424;28;5694;-70
2022/10/30 14:53:26;;;;;;;;;;;;;;;19.00;66.73;97274.03;4201065;28;5827;-70
2022/10/30 14:55:33;;;;;;;;;;;;;;;19.00;66.95;97267.84;4201261;28;5701;-69
2022/10/30 14:57:52;;;;;;;;;;;;;;;18.99;66.65;97264.34;4200951;28;5721;-70
2022/10/30 15:00:29;;;;;;;;;;;;;;;19.00;66.66;97273.22;4200990;28;5795;-70
2022/10/30 15:02:38;;;;;;;;;;;;;;;19.02;66.70;97266.56;4200826;28;6192;-70
2022/10/30 15:04:54;;;;;;;;;;;;;;;19.01;66.80;97270.28;4200834;28;5674;-70
2022/10/30 15:07:08;;;;;;;;;;;;;;;19.02;67.01;97269.25;4201087;28;5690;-70
2022/10/30 15:09:22;;;;;;;;;;;;;;;19.02;66.79;97271.09;4201029;28;7110;-70
2022/10/30 15:11:42;;;;;;;;;;;;;;;19.00;66.66;97275.88;4200928;28;5706;-70
2022/10/30 15:13:51;;;;;;;;;;;;;;;18.99;66.84;97272.41;4200786;28;5781;-70
2022/10/30 15:15:58;;;;;;;;;;;;;;;18.98;66.84;97267.28;4201019;28;6518;-70
2022/10/30 15:18:04;;;;;;;;;;;;;;;18.97;66.78;97277.19;4200585;28;5675;-69
2022/10/30 15:20:14;;;;;;;;;;;;;;;18.96;66.96;97270.19;4200852;28;6985;-69
2022/10/30 15:22:20;;;;;;;;;;;;;;;18.97;66.96;97262.97;4200956;28;5774;-70
2022/10/30 15:24:26;;;;;;;;;;;;;;;18.96;67.00;97264.84;4200889;28;5694;-69
2022/10/30 15:26:36;;;;;;;;;;;;;;;18.97;67.08;97271.81;4200832;28;5838;-70
2022/10/30 15:28:40;;;;;;;;;;;;;;;18.97;67.08;97274.50;4200644;28;5714;-69
2022/10/30 15:30:59;;;;;;;;;;;;;;;18.96;66.85;97272.88;4200667;28;5678;-70
2022/10/30 15:33:02;;;;;;;;;;;;;;;18.96;66.87;97266.69;4200362;28;5697;-69
2022/10/30 15:35:15;;;;;;;;;;;;;;;18.95;66.78;97273.94;4200688;28;5774;-70
2022/10/30 15:37:18;;;;;;;;;;;;;;;18.95;66.85;97267.75;4200577;28;5840;-70
2022/10/30 15:39:21;;;;;;;;;;;;;;;18.95;67.09;97263.22;4200520;28;5698;-69
2022/10/30 15:41:24;;;;;;;;;;;;;;;18.96;67.00;97272.88;4200335;28;5757;-69
2022/10/30 15:43:31;;;;;;;;;;;;;;;18.96;67.09;97272.88;4200794;28;5788;-70
2022/10/30 15:45:35;;;;;;;;;;;;;;;18.96;67.13;97272.06;4200509;28;6387;-69
2022/10/30 15:47:46;;;;;;;;;;;;;;;18.95;66.92;97270.44;4200504;28;5686;-70
2022/10/30 15:49:53;;;;;;;;;;;;;;;18.93;66.96;97265.31;4200313;28;5678;-70
2022/10/30 15:51:56;;;;;;;;;;;;;;;18.93;67.15;97259.97;4200531;28;5789;-70
2022/10/30 15:54:02;;;;;;;;;;;;;;;18.92;67.00;97266.38;4202525;28;5686;-70
2022/10/30 15:56:07;;;;;;;;;;;;;;;18.93;67.20;97273.34;4204002;28;5713;-70
2022/10/30 15:58:22;;;;;;;;;;;;;;;18.93;67.10;97268.00;4203905;28;5726;-70
2022/10/30 16:00:27;;;;;;;;;;;;;;;18.92;67.17;97269.03;4203791;28;5686;-71
2022/10/30 16:02:30;;;;;;;;;;;;;;;18.92;67.26;97270.91;4195436;28;5707;-71
2022/10/30 16:04:37;;;;;;;;;;;;;;;18.89;67.25;97272.97;4202543;28;5780;-71
2022/10/30 16:06:48;;;;;;;;;;;;;;;18.90;67.26;97282.66;4194766;28;5895;-71
2022/10/30 16:08:51;;;;;;;;;;;;;;;18.90;67.10;97276.47;4194422;28;5847;-74
2022/10/30 16:10:55;;;;;;;;;;;;;;;18.88;67.21;97276.72;4200137;28;5706;-66
2022/10/30 16:12:58;;;;;;;;;;;;;;;18.87;67.08;97282.31;4201723;28;5776;-65
2022/10/30 16:15:06;;;;;;;;;;;;;;;18.87;67.15;97280.44;4194473;28;5712;-65
2022/10/30 16:17:11;;;;;;;;;;;;;;;18.86;67.13;97286.03;4192871;28;5942;-66
2022/10/30 16:19:20;;;;;;;;;;;;;;;18.84;67.50;97275.56;4190701;28;5711;-66
2022/10/30 16:21:33;;;;;;;;;;;;;;;18.83;67.33;97281.16;4201437;28;5698;-65
2022/10/30 16:23:38;;;;;;;;;;;;;;;18.81;67.19;97277.91;4198073;28;5690;-66
2022/10/30 16:25:41;;;;;;;;;;;;;;;18.81;67.57;97291.28;4197025;28;6022;-65
2022/10/30 16:27:49;;;;;;;;;;;;;;;18.79;67.34;97288.81;4199722;28;5811;-65
2022/10/30 16:29:56;;;;;;;;;;;;;;;18.79;67.36;97290.69;4193869;28;5723;-65
2022/10/30 16:32:00;;;;;;;;;;;;;;;18.78;67.08;97283.69;4198685;28;5810;-66
2022/10/30 16:34:09;;;;;;;;;;;;;;;18.77;67.43;97284.75;4196756;28;6460;-65
2022/10/30 16:36:17;;;;;;;;;;;;;;;18.76;67.19;97283.13;4196603;28;5686;-65
2022/10/30 16:38:22;;;;;;;;;;;;;;;18.74;67.15;97285.22;4201230;28;5793;-66
2022/10/30 16:40:28;;;;;;;;;;;;;;;18.72;67.02;97290.00;4193633;28;5805;-66
2022/10/30 16:42:31;;;;;;;;;;;;;;;18.71;67.20;97291.06;4197069;28;5833;-66
2022/10/30 16:44:35;;;;;;;;;;;;;;;18.70;67.07;97300.16;4196702;28;5781;-65
2022/10/30 16:46:41;;;;;;;;;;;;;;;18.69;67.10;97298.47;4197682;28;5974;-66
2022/10/30 16:48:48;;;;;;;;;;;;;;;18.68;67.30;97302.22;4200499;28;5702;-65
2022/10/30 16:50:51;;;;;;;;;;;;;;;18.68;67.34;97307.56;4199534;28;5987;-65
2022/10/30 16:52:54;;;;;;;;;;;;;;;18.67;67.22;97304.06;4198692;28;5861;-65
2022/10/30 16:55:03;;;;;;;;;;;;;;;18.66;67.16;97305.13;4196355;28;6787;-66
2022/10/30 16:57:16;;;;;;;;;;;;;;;18.66;66.96;97309.66;4196734;28;5847;-66
2022/10/30 16:59:27;;;;;;;;;;;;;;;18.63;67.07;97305.56;4197314;28;5820;-66
2022/10/30 17:01:33;;;;;;;;;;;;;;;18.63;67.06;97303.69;4198785;28;5773;-65
2022/10/30 17:03:39;;;;;;;;;;;;;;;18.62;66.97;97310.09;4196107;28;5699;-65
2022/10/30 17:05:57;;;;;;;;;;;;;;;18.61;66.97;97308.47;4194006;28;5845;-66
2022/10/30 17:08:02;;;;;;;;;;;;;;;18.61;66.95;97310.34;4192546;28;5809;-65
2022/10/30 17:10:33;;;;;;;;;;;;;;;18.58;67.17;97308.94;4186947;28;6368;-65
2022/10/30 17:12:37;;;;;;;;;;;;;;;18.59;66.91;97313.25;4198934;28;5118;-65
2022/10/30 17:14:48;;;;;;;;;;;;;;;18.58;67.19;97319.66;4191822;28;5892;-66
2022/10/30 17:16:53;;;;;;;;;;;;;;;18.58;67.16;97324.19;4200420;28;7124;-65
2022/10/30 17:18:59;;;;;;;;;;;;;;;18.57;66.90;97328.75;4192751;28;5834;-70
2022/10/30 17:21:07;;;;;;;;;;;;;;;18.56;66.83;97326.28;4191382;28;6551;-69
2022/10/30 17:23:17;;;;;;;;;;;;;;;18.55;67.14;97325.44;4197069;28;5777;-70
2022/10/30 17:25:31;;;;;;;;;;;;;;;18.55;66.90;97325.44;4194411;28;5856;-70
2022/10/30 17:27:50;;;;;;;;;;;;;;;18.54;66.92;97326.50;4190171;28;5855;-70
2022/10/30 17:29:54;;;;;;;;;;;;;;;18.54;66.80;97328.38;4185391;28;5707;-69
2022/10/30 17:31:58;;;;;;;;;;;;;;;18.54;66.80;97339.88;4195381;28;5777;-70
2022/10/30 17:34:12;;;;;;;;;;;;;;;18.51;66.98;97332.31;4189985;28;5702;-70
2022/10/30 17:36:15;;;;;;;;;;;;;;;18.52;67.08;97339.31;4188686;28;5739;-69
2022/10/30 17:38:19;;;;;;;;;;;;;;;18.52;66.92;97342.00;4190606;28;5680;-69
2022/10/30 17:40:22;;;;;;;;;;;;;;;18.52;66.75;97341.19;4191613;28;6404;-69
2022/10/30 17:42:25;;;;;;;;;;;;;;;18.52;66.90;97350.03;4188510;28;5849;-69
2022/10/30 17:44:32;;;;;;;;;;;;;;;18.52;67.04;97347.34;4188729;28;5789;-70
2022/10/30 17:46:35;;;;;;;;;;;;;;;18.52;66.74;97347.34;4196284;28;5810;-70
2022/10/30 17:48:40;;;;;;;;;;;;;;;18.53;66.84;97353.50;4192859;28;5916;-70
2022/10/30 17:50:43;;;;;;;;;;;;;;;18.51;66.98;97351.06;4190846;28;5661;-70
2022/10/30 17:52:46;;;;;;;;;;;;;;;18.51;66.61;97348.38;4196831;28;5708;-70
2022/10/30 17:54:49;;;;;;;;;;;;;;;18.50;66.95;97349.44;4197643;28;7691;-70
2022/10/30 17:56:52;;;;;;;;;;;;;;;18.50;66.66;97351.31;4193610;28;5702;-70
2022/10/30 17:58:55;;;;;;;;;;;;;;;18.50;66.65;97359.34;4192825;28;5930;-70
2022/10/30 18:01:00;;;;;;;;;;;;;;;18.50;66.63;97359.34;4195356;28;5673;-69
2022/10/30 18:03:03;;;;;;;;;;;;;;;18.49;66.73;97366.56;4196809;28;5086;-67
2022/10/30 18:05:14;;;;;;;;;;;;;;;18.48;66.60;97367.59;4189877;28;5827;-66
2022/10/30 18:07:17;;;;;;;;;;;;;;;18.48;66.92;97372.97;4189228;28;5784;-66
2022/10/30 18:09:20;;;;;;;;;;;;;;;18.43;66.52;97366.63;4192369;28;5858;-66
2022/10/30 18:11:25;;;;;;;;;;;;;;;18.47;66.66;97375.88;4196101;28;5747;-69
2022/10/30 18:13:28;;;;;;;;;;;;;;;18.45;66.67;97377.94;4194509;28;5694;-68
2022/10/30 18:15:34;;;;;;;;;;;;;;;18.43;66.59;97380.84;4187347;28;5795;-70
2022/10/30 18:17:39;;;;;;;;;;;;;;;18.43;66.70;97380.03;4186106;28;5809;-72
2022/10/30 18:19:42;;;;;;;;;;;;;;;18.45;66.63;97391.31;4189875;28;5282;-69
2022/10/30 18:21:47;;;;;;;;;;;;;;;18.45;66.41;97399.34;4193933;28;5865;-73
2022/10/30 18:23:50;;;;;;;;;;;;;;;18.44;66.52;97395.84;4186548;28;5734;-69
2022/10/30 18:25:55;;;;;;;;;;;;;;;18.43;66.69;97396.91;4188249;28;5807;-74
2022/10/30 18:27:59;;;;;;;;;;;;;;;18.42;66.54;97397.94;4190289;28;5770;-75
2022/10/30 18:30:02;;;;;;;;;;;;;;;18.42;66.49;97397.13;4191044;28;5810;-74
2022/10/30 18:32:05;;;;;;;;;;;;;;;18.41;66.35;97407.03;4193453;28;5877;-67
2022/10/30 18:34:16;;;;;;;;;;;;;;;18.40;66.59;97402.72;4191882;28;5912;-76
2022/10/30 18:36:21;;;;;;;;;;;;;;;18.40;66.65;97408.06;4191740;28;5738;-71
2022/10/30 18:38:24;;;;;;;;;;;;;;;18.41;66.37;97420.41;4194661;28;5711;-86
2022/10/30 18:40:27;;;;;;;;;;;;;;;18.40;66.53;97407.25;4195264;28;5914;-82
2022/10/30 18:42:30;;;;;;;;;;;;;;;18.39;66.55;97411.78;4189782;28;5684;-78
2022/10/30 18:44:33;;;;;;;;;;;;;;;18.39;66.31;97413.66;4195076;28;5690;-69
2022/10/30 18:46:36;;;;;;;;;;;;;;;18.40;66.62;97420.63;4195207;28;5777;-73
2022/10/30 18:48:39;;;;;;;;;;;;;;;18.39;66.73;97414.47;4196800;28;5686;-72
2022/10/30 18:50:43;;;;;;;;;;;;;;;18.39;66.37;97419.81;4193508;28;5881;-74
2022/10/30 18:52:46;;;;;;;;;;;;;;;18.38;66.30;97415.53;4192275;28;5719;-73
2022/10/30 18:54:49;;;;;;;;;;;;;;;18.37;66.65;97413.88;4188483;28;5845;-71
2022/10/30 18:56:53;;;;;;;;;;;;;;;18.34;66.48;97417.00;4195371;28;5782;-71
2022/10/30 18:58:57;;;;;;;;;;;;;;;18.33;66.47;97426.06;4191553;28;5738;-70